Terminal Aerodrome Forecast
Issued by NWS Northern Indiana

Current Version | Previous Version | Text Only | Print | Product List | Glossary On
Versions: 1 2 3 4 5 6 7 8 9 10 11 12 13
000
FTUS43 KIWX 301700
TAFFWA
TAF
KFWA 301740Z 3018/3118 24008KT P6SM VCSH BKN080
      TEMPO 3018/3022 2SM +TSRA BR BKN025CB
     FM302200 35010KT 3SM TSRA BR OVC025CB
     FM310300 05015KT 4SM -RA BR OVC015
     FM311400 04015G20KT 5SM -SHRA BR OVC008=

USA.gov is the U.S. government's official web portal to all federal, state and local government web resources and services.